Aeroporto :







RITROVATECI SU...

 
LOGIN :

Iscrizione | Disclaimer

   EN    FR    IT 

 









Sommario :    VFR   VFR Marginale   IFR   IFR Intensivo   IFR Molto Intensivo
Visibilità : 
Base nubi : 
>= 8 km
>= 3000ft
5 / 8 km
1000 / 3000 ft
1500m / 5 km
500 / 1000 ft
800 / 1500m
200 / 500 ft
< 800m
< 200 ft
Simboli :   Temporali  Nebbia  Neve Forte  Precipitazioni Forti  Vento > 20 kt






- Altitudine del aeroporto : 75 ft
- Codice IATA : YXP


CYXP - Pangnirtung

ULTIMO METAR :
  • 251821Z VRB05KT 15SM FEW015 BKN130 M10/M13 A2908 RMK SC1AC6 SLP851

METARs OBSOLETI :
  • 251800Z CCA VRB03G17KT 15SM DRSN FEW015 BKN130 M08/M12 A2907 RMK SC1AC6 PRESRR SLP846
  • 251700Z 22013G22KT 15SM DRSN FEW015 BKN170 M07/M14 A2903 RMK SC1AC6 SLP833
  • 251614Z 23011G26KT 200V290 15SM DRSN FEW015 BKN170 M08/M14 A2902 RMK SC1AC6 SLP831
  • 251600Z 12004KT 15SM FEW015 BKN160 M11/M15 A2902 RMK SC1AC6 SLP833

TAF TAF CYXP
Valido dal 25 a 19 ore il 25 a 23 ore UTC


251838Z 2519/2523 VRB03KT P6SM FEW015 BKN140
FM252100 24010KT P6SM VCSH SCT010 RMK NXT FCST WILL BE ISSUED AT 261345Z
FIR CZEG / America del Nord



MetMap, La meteo Aeronautica in un colpo d'occhio ! - Copyright ORBIFLY Dicembre 2007 - Disclaimer

ORBIFLY MET'MAP TEAM :

Programmazione e sviluppo : Alexandra Zaïnal
Concezione : Baudouin d'Aumeries
Aiuto per la programmazione : Marc-Olivier Méhu
Supporto tecnico e logistico : Manuel Goepfert
Aiuto per la traduzione : Arnaldo La Scala

Contatto : metmap@orbifly.com




FONTI E CREDITI :

   NOAA